Terminal Aerodrome Forecast
Issued by NWS

Home | Current Version | Previous Version | Text Only | Print | Product List | Glossary On
Versions: 1 2 3 4 5 6 7 8 9 10 11 12 13 14 15 16 17
000
FTUS41 KBTV 012320
TAFSLK
TAF
KSLK 012320Z 0200/0224 24010KT P6SM VCSH BKN020
     FM020200 24007KT P6SM OVC035
     FM020600 24006KT 6SM BR BKN020
     FM021100 24007KT P6SM SCT120=

USA.gov is the U.S. government's official web portal to all federal, state and local government web resources and services.